Vendome Street — A8YI6 — position and weather

sailwx.info

Track history (hours):
 
Tides and Currents Weather Stations Pressure Air Temp Water Temp Dewpoint Dewpoint Depression Visibility Wind Speed Wind Dir Waves Ship Positions

Vendome Street

Last reported at 2017-Mar-30 08:28 UTC. Time now 2017-Mar-30 08:58 UTC.
Position N 51°23' E 003°46'.

Length 177 m; draft 8.2 m.

Type: Ship. MMSI: 636015064.

Date/timePositionNaut miles runAvg speedWind from/ knotsBaromVisibWave heightAir tempDewpointWater temp
2017-Mar-30 08:28N 51°23' E 003°46'0 0.0
2017-Mar-30 07:28N 51°23' E 003°46'0 0.0
2017-Mar-30 06:31N 51°23' E 003°46'0 0.0
2017-Mar-30 05:33N 51°23' E 003°46'0 0.0
2017-Mar-30 04:33N 51°23' E 003°46'3 3.4
2017-Mar-30 03:33N 51°25' E 003°42'1111.0
2017-Mar-30 02:33N 51°25' E 003°24'1413.5
2017-Mar-30 01:30N 51°24' E 003°01'1212.3
2017-Mar-30 00:34N 51°23' E 002°43'5 4.3
2017-Mar-29 23:31N 51°25' E 002°37'0 0.0
2017-Mar-29 22:32N 51°25' E 002°37'0 0.0
2017-Mar-29 21:31N 51°25' E 002°37'0 0.0
2017-Mar-29 20:32N 51°25' E 002°37'0 0.0
2017-Mar-29 19:31N 51°25' E 002°37'0 0.2
2017-Mar-29 18:31N 51°26' E 002°37'0 0.1
2017-Mar-29 17:31N 51°26' E 002°37'0 0.0
2017-Mar-29 16:31N 51°26' E 002°37'0 0.0
2017-Mar-29 15:31N 51°26' E 002°37'0 0.0
2017-Mar-29 14:31N 51°26' E 002°37'0 0.0
2017-Mar-29 13:31N 51°26' E 002°37'0 0.0
2017-Mar-29 12:31N 51°26' E 002°37'0 0.0
2017-Mar-29 11:31N 51°25' E 002°37'0 0.2
2017-Mar-29 10:31N 51°25' E 002°37'0 0.0
2017-Mar-29 09:28N 51°25' E 002°36'0 0.0
2017-Mar-29 08:31N 51°25' E 002°37'0 0.2
2017-Mar-29 07:31N 51°25' E 002°37'0 0.1
2017-Mar-29 06:31N 51°25' E 002°37'0 0.2
2017-Mar-29 05:34N 51°25' E 002°37'5 5.1
2017-Mar-29 04:33N 51°22' E 002°30'1010.1
2017-Mar-29 03:33N 51°18' E 002°16'1110.6
2017-Mar-29 02:33N 51°12' E 002°01'1212.0
2017-Mar-29 01:33N 51°06' E 001°45'1110.7
2017-Mar-29 00:33N 50°58' E 001°33'1110.8
2017-Mar-28 23:33N 50°49' E 001°25'1110.9
2017-Mar-28 22:33N 50°39' E 001°17'1111.3
2017-Mar-28 21:33N 50°32' E 001°03'1311.4
2017-Mar-28 20:27N 50°27' E 000°45'1211.4
2017-Mar-28 19:24N 50°24' E 000°27'1011.8
2017-Mar-28 18:33N 50°22' E 000°12'1211.6
2017-Mar-28 17:33N 50°19' W 000°06'1211.5
2017-Mar-28 16:33N 50°15' W 000°23'1111.2
2017-Mar-28 15:33N 50°13' W 000°40'12 8.3
2017-Mar-28 14:08N 50°10' W 000°58'2 3.2
2017-Mar-28 13:33N 50°09' W 001°01'1010.1
2017-Mar-28 12:33N 50°07' W 001°16'1110.9
2017-Mar-28 11:34N 50°04' W 001°32'1111.2
2017-Mar-28 10:33N 50°00' W 001°49'1212.2
2017-Mar-28 09:33N 49°57' W 002°07'2712.7
2017-Mar-28 07:25N 49°50' W 002°48'1412.7
2017-Mar-28 06:17N 49°46' W 003°09'1013.7
2017-Mar-28 05:33N 49°43' W 003°24'8213.3
2017-Mar-27 23:23N 48°59' W 005°10'1012.4
2017-Mar-27 22:33N 48°53' W 005°23'1711.6
2017-Mar-27 21:07N 48°41' W 005°42'  
Track history (hours):
 
Tides and Currents Weather Stations Pressure Air Temp Water Temp Dewpoint Dewpoint Depression Visibility Wind Speed Wind Dir Waves Ship Positions

Vendome Street

Last reported at 2017-Mar-30 08:28 UTC. Time now 2017-Mar-30 08:58 UTC.
Position N 51°23' E 003°46'.

Length 177 m; draft 8.2 m.

Type: Ship. MMSI: 636015064.

Date/timePositionNaut miles runAvg speedWind from/ knotsBaromVisibWave heightAir tempDewpointWater temp
2017-Mar-30 08:28N 51°23' E 003°46'0 0.0
2017-Mar-30 07:28N 51°23' E 003°46'0 0.0
2017-Mar-30 06:31N 51°23' E 003°46'0 0.0
2017-Mar-30 05:33N 51°23' E 003°46'0 0.0
2017-Mar-30 04:33N 51°23' E 003°46'3 3.4
2017-Mar-30 03:33N 51°25' E 003°42'1111.0
2017-Mar-30 02:33N 51°25' E 003°24'1413.5
2017-Mar-30 01:30N 51°24' E 003°01'1212.3
2017-Mar-30 00:34N 51°23' E 002°43'5 4.3
2017-Mar-29 23:31N 51°25' E 002°37'0 0.0
2017-Mar-29 22:32N 51°25' E 002°37'0 0.0
2017-Mar-29 21:31N 51°25' E 002°37'0 0.0
2017-Mar-29 20:32N 51°25' E 002°37'0 0.0
2017-Mar-29 19:31N 51°25' E 002°37'0 0.2
2017-Mar-29 18:31N 51°26' E 002°37'0 0.1
2017-Mar-29 17:31N 51°26' E 002°37'0 0.0
2017-Mar-29 16:31N 51°26' E 002°37'0 0.0
2017-Mar-29 15:31N 51°26' E 002°37'0 0.0
2017-Mar-29 14:31N 51°26' E 002°37'0 0.0
2017-Mar-29 13:31N 51°26' E 002°37'0 0.0
2017-Mar-29 12:31N 51°26' E 002°37'0 0.0
2017-Mar-29 11:31N 51°25' E 002°37'0 0.2
2017-Mar-29 10:31N 51°25' E 002°37'0 0.0
2017-Mar-29 09:28N 51°25' E 002°36'0 0.0
2017-Mar-29 08:31N 51°25' E 002°37'0 0.2
2017-Mar-29 07:31N 51°25' E 002°37'0 0.1
2017-Mar-29 06:31N 51°25' E 002°37'0 0.2
2017-Mar-29 05:34N 51°25' E 002°37'5 5.1
2017-Mar-29 04:33N 51°22' E 002°30'1010.1
2017-Mar-29 03:33N 51°18' E 002°16'1110.6
2017-Mar-29 02:33N 51°12' E 002°01'1212.0
2017-Mar-29 01:33N 51°06' E 001°45'1110.7
2017-Mar-29 00:33N 50°58' E 001°33'1110.8
2017-Mar-28 23:33N 50°49' E 001°25'1110.9
2017-Mar-28 22:33N 50°39' E 001°17'1111.3
2017-Mar-28 21:33N 50°32' E 001°03'1311.4
2017-Mar-28 20:27N 50°27' E 000°45'1211.4
2017-Mar-28 19:24N 50°24' E 000°27'1011.8
2017-Mar-28 18:33N 50°22' E 000°12'1211.6
2017-Mar-28 17:33N 50°19' W 000°06'1211.5
2017-Mar-28 16:33N 50°15' W 000°23'1111.2
2017-Mar-28 15:33N 50°13' W 000°40'12 8.3
2017-Mar-28 14:08N 50°10' W 000°58'2 3.2
2017-Mar-28 13:33N 50°09' W 001°01'1010.1
2017-Mar-28 12:33N 50°07' W 001°16'1110.9
2017-Mar-28 11:34N 50°04' W 001°32'1111.2
2017-Mar-28 10:33N 50°00' W 001°49'1212.2
2017-Mar-28 09:33N 49°57' W 002°07'2712.7
2017-Mar-28 07:25N 49°50' W 002°48'1412.7
2017-Mar-28 06:17N 49°46' W 003°09'1013.7
2017-Mar-28 05:33N 49°43' W 003°24'8213.3
2017-Mar-27 23:23N 48°59' W 005°10'1012.4
2017-Mar-27 22:33N 48°53' W 005°23'1711.6
2017-Mar-27 21:07N 48°41' W 005°42'  

Dump ship's entire track history